Time;durP1;ratioP1;P1;durP2;ratioP2;P2;SDS_P1;SDS_P2;PMS_P1;PMS_P2;Temp;Humidity;BMP_temperature;BMP_pressure;BME280_temperature;BME280_humidity;BME280_pressure;Samples;Min_cycle;Max_cycle;Signal;HPM_P1;HPM_P2
2022/11/11 00:02:13;;;;;;;6.63;3.00;;;;;;;;;;5091457;28;20239;-45
2022/11/11 00:04:39;;;;;;;5.83;2.83;;;;;;;;;;5091151;28;20281;-44
2022/11/11 00:07:06;;;;;;;4.67;2.43;;;;;;;;;;5091116;28;20306;-44
2022/11/11 00:09:32;;;;;;;3.90;2.47;;;;;;;;;;5090538;28;20313;-44
2022/11/11 00:11:59;;;;;;;9.90;2.77;;;;;;;;;;5091636;28;20285;-44
2022/11/11 00:14:25;;;;;;;5.77;2.70;;;;;;;;;;5091222;28;20238;-44
2022/11/11 00:25:05;;;;;;;5.20;2.90;;;;;;;;;;5094567;28;20191;-45
2022/11/11 00:27:32;;;;;;;5.10;2.80;;;;;;;;;;5094522;28;20218;-44
2022/11/11 00:29:58;;;;;;;7.77;2.70;;;;;;;;;;5094795;28;20195;-44
2022/11/11 00:32:29;;;;;;;6.50;3.00;;;;;;;;;;5094450;28;20272;-45
2022/11/11 00:37:41;;;;;;;5.50;2.33;;;;;;;;;;5094569;28;20641;-49
2022/11/11 00:40:08;;;;;;;6.63;2.87;;;;;;;;;;5094692;28;20558;-44
2022/11/11 00:42:36;;;;;;;6.17;2.80;;;;;;;;;;5094329;28;20198;-44
2022/11/11 00:45:02;;;;;;;2.93;2.43;;;;;;;;;;5094010;28;20203;-45
2022/11/11 00:52:58;;;;;;;5.67;2.77;;;;;;;;;;5094595;28;20328;-44
2022/11/11 00:55:24;;;;;;;7.27;3.00;;;;;;;;;;5093933;28;20678;-46
2022/11/11 00:57:51;;;;;;;8.83;3.37;;;;;;;;;;5093625;28;20187;-44
2022/11/11 01:00:18;;;;;;;6.77;2.90;;;;;;;;;;5090104;28;20281;-44
2022/11/11 01:02:44;;;;;;;5.73;2.80;;;;;;;;;;5092974;28;20712;-45
2022/11/11 01:05:10;;;;;;;6.10;2.83;;;;;;;;;;5093390;28;20221;-44
2022/11/11 01:07:36;;;;;;;6.07;2.80;;;;;;;;;;5093291;28;20709;-45
2022/11/11 01:10:02;;;;;;;7.17;3.17;;;;;;;;;;5083912;28;20206;-44
2022/11/11 01:12:28;;;;;;;7.27;3.00;;;;;;;;;;5091136;28;20687;-44
2022/11/11 01:14:55;;;;;;;6.67;2.60;;;;;;;;;;5092412;28;20661;-44
2022/11/11 01:17:21;;;;;;;3.33;2.67;;;;;;;;;;5091176;28;20685;-45
2022/11/11 01:19:47;;;;;;;4.93;2.93;;;;;;;;;;5091104;28;20191;-46
2022/11/11 01:22:13;;;;;;;6.80;3.00;;;;;;;;;;5092675;28;20195;-45
2022/11/11 01:24:39;;;;;;;6.20;2.93;;;;;;;;;;5092710;28;20195;-45
2022/11/11 01:27:05;;;;;;;5.00;2.73;;;;;;;;;;5093227;28;20276;-44
2022/11/11 01:29:31;;;;;;;8.00;3.33;;;;;;;;;;5092520;28;20198;-46
2022/11/11 01:31:59;;;;;;;5.10;2.90;;;;;;;;;;5092425;28;20197;-46
2022/11/11 01:34:26;;;;;;;7.20;3.17;;;;;;;;;;5092675;28;20302;-44
2022/11/11 01:36:52;;;;;;;6.73;2.70;;;;;;;;;;5093284;28;20609;-45
2022/11/11 01:39:18;;;;;;;4.90;2.67;;;;;;;;;;5093145;28;20206;-45
2022/11/11 01:41:44;;;;;;;8.17;2.90;;;;;;;;;;5092974;28;20733;-45
2022/11/11 01:44:19;;;;;;;4.70;2.80;;;;;;;;;;5092964;28;20673;-45
2022/11/11 01:46:47;;;;;;;4.17;2.73;;;;;;;;;;5092658;28;20206;-45
2022/11/11 01:49:21;;;;;;;6.37;2.80;;;;;;;;;;5091923;28;20249;-45
2022/11/11 01:51:50;;;;;;;6.30;2.87;;;;;;;;;;5092627;28;20760;-45
2022/11/11 01:54:18;;;;;;;4.60;2.63;;;;;;;;;;5092953;28;20199;-45
2022/11/11 01:56:46;;;;;;;6.07;2.90;;;;;;;;;;5092687;28;20241;-45
2022/11/11 01:59:15;;;;;;;6.17;3.03;;;;;;;;;;5092718;28;20277;-45
2022/11/11 02:01:42;;;;;;;8.43;2.67;;;;;;;;;;5092656;28;20788;-45
2022/11/11 02:06:58;;;;;;;4.60;2.47;;;;;;;;;;5092626;28;20276;-45
2022/11/11 02:09:24;;;;;;;4.67;2.70;;;;;;;;;;5092561;28;20241;-45
2022/11/11 02:14:41;;;;;;;5.20;3.20;;;;;;;;;;5092501;28;20197;-45
2022/11/11 02:17:08;;;;;;;7.10;2.60;;;;;;;;;;5092442;28;20198;-45
2022/11/11 02:19:38;;;;;;;8.97;3.20;;;;;;;;;;5092343;28;20195;-45
2022/11/11 02:22:08;;;;;;;5.07;2.50;;;;;;;;;;5092362;28;20199;-44
2022/11/11 02:24:36;;;;;;;5.37;2.90;;;;;;;;;;5092088;28;20230;-45
2022/11/11 02:27:02;;;;;;;5.20;3.13;;;;;;;;;;5092317;28;20248;-45
2022/11/11 02:29:29;;;;;;;3.87;2.87;;;;;;;;;;5091430;28;20198;-45
2022/11/11 02:31:56;;;;;;;4.60;2.77;;;;;;;;;;5091945;28;20551;-45
2022/11/11 02:34:27;;;;;;;4.57;3.10;;;;;;;;;;5092043;28;20203;-45
2022/11/11 02:36:53;;;;;;;4.57;2.83;;;;;;;;;;5091788;28;20539;-45
2022/11/11 02:39:19;;;;;;;4.97;2.90;;;;;;;;;;5089861;28;20679;-45
2022/11/11 02:41:57;;;;;;;7.40;3.00;;;;;;;;;;5090794;28;20191;-45
2022/11/11 02:44:24;;;;;;;6.30;3.20;;;;;;;;;;5091995;28;20199;-45
2022/11/11 02:46:50;;;;;;;3.53;2.63;;;;;;;;;;5091295;28;20252;-44
2022/11/11 02:49:16;;;;;;;6.67;3.20;;;;;;;;;;5091651;28;20199;-44
2022/11/11 02:51:42;;;;;;;6.60;2.83;;;;;;;;;;5090678;28;20229;-45
2022/11/11 02:54:08;;;;;;;5.27;3.10;;;;;;;;;;5091631;28;20277;-45
2022/11/11 02:59:23;;;;;;;4.57;2.83;;;;;;;;;;5091891;28;20201;-45
2022/11/11 03:01:49;;;;;;;5.00;2.90;;;;;;;;;;5091624;28;20195;-45
2022/11/11 03:04:15;;;;;;;8.00;2.87;;;;;;;;;;5091726;28;20281;-45
2022/11/11 03:06:41;;;;;;;6.27;3.00;;;;;;;;;;5091478;28;20226;-45
2022/11/11 03:09:07;;;;;;;5.87;2.87;;;;;;;;;;5090052;28;20744;-45
2022/11/11 03:11:37;;;;;;;7.70;2.80;;;;;;;;;;5091517;28;20331;-45
2022/11/11 03:14:03;;;;;;;6.53;3.10;;;;;;;;;;5090116;28;20282;-45
2022/11/11 03:19:15;;;;;;;7.53;2.80;;;;;;;;;;5091860;28;20252;-45
2022/11/11 03:21:41;;;;;;;7.17;2.97;;;;;;;;;;5091658;28;20637;-45
2022/11/11 03:24:07;;;;;;;7.30;2.67;;;;;;;;;;5091770;28;20293;-45
2022/11/11 03:26:33;;;;;;;4.33;3.17;;;;;;;;;;5091649;28;20199;-46
2022/11/11 03:29:00;;;;;;;5.47;3.00;;;;;;;;;;5091774;28;20240;-45
2022/11/11 03:31:26;;;;;;;5.03;2.60;;;;;;;;;;5090915;28;20214;-45
2022/11/11 03:33:53;;;;;;;6.07;2.83;;;;;;;;;;5091473;28;20546;-45
2022/11/11 03:36:19;;;;;;;6.10;2.87;;;;;;;;;;5091546;28;20195;-45
2022/11/11 03:38:45;;;;;;;6.57;3.13;;;;;;;;;;5091413;28;20205;-45
2022/11/11 03:41:11;;;;;;;4.67;3.13;;;;;;;;;;5091592;28;20607;-45
2022/11/11 03:43:37;;;;;;;5.60;2.97;;;;;;;;;;5091634;28;20195;-45
2022/11/11 03:46:04;;;;;;;5.00;3.27;;;;;;;;;;5091653;28;20203;-45
2022/11/11 03:48:31;;;;;;;4.53;2.73;;;;;;;;;;5091458;28;20233;-45
2022/11/11 03:50:58;;;;;;;5.30;2.70;;;;;;;;;;5091215;28;20227;-45
2022/11/11 03:53:25;;;;;;;6.67;3.00;;;;;;;;;;5089863;28;20233;-45
2022/11/11 03:55:51;;;;;;;4.13;2.80;;;;;;;;;;5091444;28;20207;-45
2022/11/11 03:58:18;;;;;;;6.37;3.40;;;;;;;;;;5093731;28;20653;-45
2022/11/11 04:00:44;;;;;;;4.67;2.80;;;;;;;;;;5095224;28;20566;-45
2022/11/11 04:11:27;;;;;;;7.27;3.10;;;;;;;;;;5094394;28;20684;-45
2022/11/11 04:16:39;;;;;;;6.20;3.03;;;;;;;;;;5094681;28;20272;-45
2022/11/11 04:21:49;;;;;;;4.47;2.73;;;;;;;;;;5094879;28;20416;-45
2022/11/11 04:27:03;;;;;;;4.00;2.80;;;;;;;;;;5094517;28;20236;-45
2022/11/11 04:29:30;;;;;;;4.80;2.97;;;;;;;;;;5093567;28;20676;-45
2022/11/11 04:34:42;;;;;;;3.60;2.60;;;;;;;;;;5094536;28;20190;-45
2022/11/11 04:37:08;;;;;;;5.13;2.90;;;;;;;;;;5094711;28;20195;-45
2022/11/11 04:42:20;;;;;;;6.67;2.97;;;;;;;;;;5094437;28;20241;-45
2022/11/11 04:47:31;;;;;;;5.77;2.80;;;;;;;;;;5094509;28;20271;-45
2022/11/11 04:49:57;;;;;;;7.33;3.00;;;;;;;;;;5094490;28;20542;-45
2022/11/11 04:52:25;;;;;;;6.03;2.93;;;;;;;;;;5094344;28;20280;-45
2022/11/11 04:57:39;;;;;;;4.27;2.70;;;;;;;;;;5093797;28;20244;-45
2022/11/11 05:00:05;;;;;;;6.97;2.77;;;;;;;;;;5093781;28;20191;-45
2022/11/11 05:05:16;;;;;;;6.53;2.77;;;;;;;;;;5094120;28;20198;-45
2022/11/11 05:10:28;;;;;;;6.03;2.90;;;;;;;;;;5092141;28;20226;-46
2022/11/11 05:21:19;;;;;;;5.27;3.03;;;;;;;;;;5093796;28;20203;-45
2022/11/11 05:21:22;;;;;;;9.70;3.23;;;;;;;;;;5093608;28;20198;-45
2022/11/11 05:26:35;;;;;;;4.73;2.93;;;;;;;;;;5093558;28;20190;-45
2022/11/11 05:29:01;;;;;;;6.17;2.77;;;;;;;;;;5093603;28;20223;-45
2022/11/11 05:31:28;;;;;;;5.10;2.97;;;;;;;;;;5093360;28;20669;-45
2022/11/11 05:33:54;;;;;;;4.47;2.77;;;;;;;;;;5093612;28;20194;-45
2022/11/11 05:36:20;;;;;;;7.33;3.13;;;;;;;;;;5093409;28;20446;-45
2022/11/11 05:38:46;;;;;;;5.70;3.50;;;;;;;;;;5093245;28;20538;-45
2022/11/11 05:41:12;;;;;;;4.77;3.00;;;;;;;;;;5093310;28;20700;-45
2022/11/11 05:43:39;;;;;;;8.00;3.50;;;;;;;;;;5091298;28;20264;-45
2022/11/11 05:46:05;;;;;;;4.17;3.07;;;;;;;;;;5093245;28;20636;-45
2022/11/11 05:48:31;;;;;;;4.80;2.80;;;;;;;;;;5092899;28;20305;-45
2022/11/11 05:50:57;;;;;;;5.93;3.30;;;;;;;;;;5091205;28;20257;-45
2022/11/11 05:53:23;;;;;;;6.67;3.60;;;;;;;;;;5091512;28;20657;-45
2022/11/11 05:55:50;;;;;;;6.33;3.20;;;;;;;;;;5093022;28;20631;-45
2022/11/11 05:58:16;;;;;;;8.73;4.20;;;;;;;;;;5093008;28;20190;-45
2022/11/11 06:00:44;;;;;;;6.30;3.20;;;;;;;;;;5092902;28;20680;-45
2022/11/11 06:03:10;;;;;;;6.37;3.97;;;;;;;;;;5092867;28;20230;-45
2022/11/11 06:05:36;;;;;;;8.97;4.57;;;;;;;;;;5092711;28;20202;-45
2022/11/11 06:08:03;;;;;;;10.10;3.93;;;;;;;;;;5092618;28;20227;-45
2022/11/11 06:10:29;;;;;;;5.67;3.60;;;;;;;;;;5092866;28;20261;-45
2022/11/11 06:13:03;;;;;;;9.07;5.87;;;;;;;;;;5092218;28;20623;-50
2022/11/11 06:15:29;;;;;;;12.40;6.47;;;;;;;;;;5092544;28;20202;-46
2022/11/11 06:17:57;;;;;;;12.10;5.53;;;;;;;;;;5092141;28;20281;-49
2022/11/11 06:20:23;;;;;;;11.30;5.07;;;;;;;;;;5092101;28;20312;-45
2022/11/11 06:22:55;;;;;;;6.30;4.90;;;;;;;;;;5092089;28;20206;-46
2022/11/11 06:26:21;;;;;;;8.83;5.47;;;;;;;;;;5092354;28;20248;-45
2022/11/11 06:28:17;;;;;;;9.47;5.30;;;;;;;;;;5095936;28;20735;-46
2022/11/11 06:30:43;;;;;;;12.10;6.63;;;;;;;;;;5092399;28;20715;-46
2022/11/11 06:33:11;;;;;;;15.03;8.40;;;;;;;;;;5092538;28;20306;-45
2022/11/11 06:35:38;;;;;;;12.30;7.63;;;;;;;;;;5092327;28;20210;-46
2022/11/11 06:38:05;;;;;;;5.63;3.70;;;;;;;;;;5092486;28;20195;-45
2022/11/11 06:40:32;;;;;;;5.50;3.57;;;;;;;;;;5092341;28;20244;-45
2022/11/11 06:42:58;;;;;;;7.50;4.13;;;;;;;;;;5091776;28;20201;-45
2022/11/11 06:45:24;;;;;;;4.40;3.77;;;;;;;;;;5092031;28;20229;-45
2022/11/11 06:47:50;;;;;;;6.63;3.87;;;;;;;;;;5092065;28;20225;-45
2022/11/11 06:50:17;;;;;;;6.63;4.07;;;;;;;;;;5092216;28;20191;-45
2022/11/11 06:52:43;;;;;;;8.67;4.20;;;;;;;;;;5091794;28;20740;-45
2022/11/11 06:55:10;;;;;;;9.53;4.43;;;;;;;;;;5092245;28;20294;-45
2022/11/11 06:57:36;;;;;;;7.93;4.20;;;;;;;;;;5092076;28;20649;-45
2022/11/11 07:00:02;;;;;;;11.00;6.10;;;;;;;;;;5092164;28;20190;-45
2022/11/11 07:02:28;;;;;;;9.63;6.73;;;;;;;;;;5092015;28;20289;-46
2022/11/11 07:04:54;;;;;;;8.13;5.37;;;;;;;;;;5091884;28;20286;-45
2022/11/11 07:07:21;;;;;;;6.73;4.50;;;;;;;;;;5092179;28;20262;-45
2022/11/11 07:09:47;;;;;;;9.43;5.90;;;;;;;;;;5091818;28;20299;-45
2022/11/11 07:12:13;;;;;;;8.07;4.40;;;;;;;;;;5090293;28;20222;-45
2022/11/11 07:14:39;;;;;;;8.60;5.20;;;;;;;;;;5091893;28;20194;-45
2022/11/11 07:17:06;;;;;;;6.20;3.50;;;;;;;;;;5091752;28;20198;-46
2022/11/11 07:19:32;;;;;;;8.60;4.10;;;;;;;;;;5091889;28;20203;-46
2022/11/11 07:21:58;;;;;;;7.53;3.80;;;;;;;;;;5091507;28;20203;-45
2022/11/11 07:24:25;;;;;;;6.43;3.67;;;;;;;;;;5090690;28;20205;-45
2022/11/11 07:26:51;;;;;;;8.33;3.23;;;;;;;;;;5090223;28;20301;-45
2022/11/11 07:29:18;;;;;;;5.80;3.63;;;;;;;;;;5091347;28;20771;-46
2022/11/11 07:31:44;;;;;;;5.43;3.60;;;;;;;;;;5091701;28;20198;-45
2022/11/11 07:34:10;;;;;;;9.37;3.83;;;;;;;;;;5093793;28;20202;-45
2022/11/11 07:36:36;;;;;;;5.43;3.20;;;;;;;;;;5094661;28;20225;-49
2022/11/11 07:39:02;;;;;;;6.47;3.03;;;;;;;;;;5095451;28;20202;-45
2022/11/11 07:41:30;;;;;;;4.47;3.10;;;;;;;;;;5095248;28;20263;-45
2022/11/11 07:43:56;;;;;;;6.30;3.00;;;;;;;;;;5093765;28;20558;-45
2022/11/11 07:46:22;;;;;;;6.00;3.50;;;;;;;;;;5095534;28;20209;-45
2022/11/11 07:48:48;;;;;;;5.07;3.17;;;;;;;;;;5095227;28;20222;-45
2022/11/11 07:51:14;;;;;;;6.83;3.70;;;;;;;;;;5095301;28;20706;-45
2022/11/11 07:53:40;;;;;;;4.33;3.00;;;;;;;;;;5095322;28;20228;-45
2022/11/11 07:56:07;;;;;;;8.87;3.20;;;;;;;;;;5093477;28;20224;-45
2022/11/11 07:58:34;;;;;;;4.33;2.97;;;;;;;;;;5095105;28;20191;-45
2022/11/11 08:01:00;;;;;;;6.13;3.00;;;;;;;;;;5093472;28;20234;-45
2022/11/11 08:03:26;;;;;;;5.37;2.90;;;;;;;;;;5094175;28;20249;-46
2022/11/11 08:05:52;;;;;;;4.33;2.90;;;;;;;;;;5095034;28;20198;-45
2022/11/11 08:08:23;;;;;;;6.00;3.00;;;;;;;;;;5094932;28;20237;-45
2022/11/11 08:10:49;;;;;;;5.07;2.87;;;;;;;;;;5094901;28;20538;-45
2022/11/11 08:16:05;;;;;;;4.33;2.87;;;;;;;;;;5094931;28;20240;-45
2022/11/11 08:18:31;;;;;;;4.03;2.60;;;;;;;;;;5094951;28;20705;-46
2022/11/11 08:20:57;;;;;;;5.10;2.90;;;;;;;;;;5094815;28;20564;-46
2022/11/11 08:23:31;;;;;;;5.23;2.67;;;;;;;;;;5095203;28;20202;-46
2022/11/11 08:25:58;;;;;;;5.57;2.83;;;;;;;;;;5094226;28;20195;-47
2022/11/11 08:28:24;;;;;;;4.93;3.10;;;;;;;;;;5091905;28;20280;-47
2022/11/11 08:30:50;;;;;;;5.17;3.13;;;;;;;;;;5093651;28;20650;-46
2022/11/11 08:33:17;;;;;;;5.30;2.60;;;;;;;;;;5094292;28;20293;-46
2022/11/11 08:35:43;;;;;;;4.73;2.63;;;;;;;;;;5093817;28;20225;-46
2022/11/11 08:38:09;;;;;;;4.43;2.70;;;;;;;;;;5094324;28;20214;-47
2022/11/11 08:40:35;;;;;;;4.93;2.43;;;;;;;;;;5093279;28;20202;-47
2022/11/11 08:43:01;;;;;;;3.97;2.60;;;;;;;;;;5093383;28;20559;-46
2022/11/11 08:45:27;;;;;;;5.30;2.50;;;;;;;;;;5092370;28;20206;-47
2022/11/11 08:47:53;;;;;;;4.97;2.37;;;;;;;;;;5093198;28;20222;-47
2022/11/11 08:50:21;;;;;;;6.93;2.37;;;;;;;;;;5094067;28;20191;-47
2022/11/11 08:52:47;;;;;;;3.43;1.90;;;;;;;;;;5093804;28;20709;-46
2022/11/11 08:55:13;;;;;;;3.00;2.07;;;;;;;;;;5093767;28;20278;-46
2022/11/11 08:57:40;;;;;;;3.20;2.33;;;;;;;;;;5093713;28;20187;-46
2022/11/11 09:00:06;;;;;;;4.10;2.17;;;;;;;;;;5091736;28;20202;-47
2022/11/11 09:02:32;;;;;;;4.57;2.30;;;;;;;;;;5093733;28;20191;-46
2022/11/11 09:04:58;;;;;;;3.37;2.30;;;;;;;;;;5093147;28;20196;-47
2022/11/11 09:07:26;;;;;;;5.27;2.37;;;;;;;;;;5093483;28;20235;-46
2022/11/11 09:09:52;;;;;;;3.07;2.10;;;;;;;;;;5093238;28;20581;-46
2022/11/11 09:12:18;;;;;;;2.87;2.30;;;;;;;;;;5092375;28;20215;-46
2022/11/11 09:14:44;;;;;;;4.67;2.10;;;;;;;;;;5092439;28;20228;-46
2022/11/11 09:17:10;;;;;;;3.80;2.23;;;;;;;;;;5091171;28;20208;-46
2022/11/11 09:19:36;;;;;;;5.93;2.43;;;;;;;;;;5093129;28;20191;-46
2022/11/11 09:22:02;;;;;;;4.47;2.07;;;;;;;;;;5092790;28;20203;-46
2022/11/11 09:24:29;;;;;;;3.43;2.37;;;;;;;;;;5092968;28;20256;-45
2022/11/11 09:26:55;;;;;;;4.30;2.00;;;;;;;;;;5092642;28;20652;-46
2022/11/11 09:29:21;;;;;;;3.03;2.10;;;;;;;;;;5092860;28;20322;-45
2022/11/11 09:31:47;;;;;;;2.90;2.00;;;;;;;;;;5092950;28;20208;-46
2022/11/11 09:34:14;;;;;;;4.33;2.10;;;;;;;;;;5092624;28;20196;-46
2022/11/11 09:36:40;;;;;;;4.27;1.80;;;;;;;;;;5092825;28;20248;-47
2022/11/11 09:39:06;;;;;;;4.47;2.10;;;;;;;;;;5092999;28;20213;-47
2022/11/11 09:41:37;;;;;;;4.20;2.20;;;;;;;;;;5092451;28;20233;-47
2022/11/11 09:44:04;;;;;;;2.93;2.00;;;;;;;;;;5092586;28;20209;-45
2022/11/11 09:46:33;;;;;;;3.30;2.10;;;;;;;;;;5092883;28;20207;-46
2022/11/11 09:49:10;;;;;;;3.17;2.00;;;;;;;;;;5092353;28;20225;-46
2022/11/11 09:51:40;;;;;;;3.93;1.90;;;;;;;;;;5092379;28;20667;-46
2022/11/11 09:54:08;;;;;;;2.17;1.97;;;;;;;;;;5092955;28;20208;-46
2022/11/11 09:56:37;;;;;;;3.60;1.93;;;;;;;;;;5092308;28;20657;-46
2022/11/11 09:59:06;;;;;;;4.50;1.90;;;;;;;;;;5092255;28;20202;-46
2022/11/11 10:01:33;;;;;;;4.40;2.10;;;;;;;;;;5091716;28;20277;-47
2022/11/11 10:04:04;;;;;;;3.33;2.03;;;;;;;;;;5092210;28;20301;-46
2022/11/11 10:06:32;;;;;;;3.63;2.07;;;;;;;;;;5091732;28;20206;-45
2022/11/11 10:09:01;;;;;;;3.67;1.87;;;;;;;;;;5091551;28;20238;-45
2022/11/11 10:11:35;;;;;;;4.87;2.17;;;;;;;;;;5091926;28;20726;-45
2022/11/11 10:14:03;;;;;;;5.43;2.27;;;;;;;;;;5092105;28;20247;-45
2022/11/11 10:16:35;;;;;;;3.40;1.90;;;;;;;;;;5089954;28;20304;-45
2022/11/11 10:19:13;;;;;;;4.53;2.07;;;;;;;;;;5092377;28;20198;-46
2022/11/11 10:21:44;;;;;;;4.10;2.20;;;;;;;;;;5092163;28;20260;-45
2022/11/11 10:24:11;;;;;;;4.10;1.80;;;;;;;;;;5092081;28;20256;-46
2022/11/11 10:26:39;;;;;;;2.97;1.77;;;;;;;;;;5092039;28;20195;-46
2022/11/11 10:29:10;;;;;;;3.80;1.97;;;;;;;;;;5091842;28;20681;-46
2022/11/11 10:31:36;;;;;;;4.43;2.10;;;;;;;;;;5091111;28;20204;-47
2022/11/11 10:34:03;;;;;;;3.63;1.53;;;;;;;;;;5092231;28;20196;-47
2022/11/11 10:36:30;;;;;;;3.70;1.87;;;;;;;;;;5092023;28;20212;-47
2022/11/11 10:38:58;;;;;;;2.80;1.80;;;;;;;;;;5091769;28;20194;-47
2022/11/11 10:41:26;;;;;;;4.50;1.63;;;;;;;;;;5091798;28;20243;-47
2022/11/11 10:43:52;;;;;;;2.20;1.77;;;;;;;;;;5091820;28;20749;-47
2022/11/11 10:46:24;;;;;;;5.20;1.70;;;;;;;;;;5091800;28;20270;-47
2022/11/11 10:48:53;;;;;;;2.73;1.30;;;;;;;;;;5091522;28;20228;-47
2022/11/11 10:51:19;;;;;;;3.10;1.77;;;;;;;;;;5091669;28;20245;-47
2022/11/11 10:53:48;;;;;;;4.10;1.80;;;;;;;;;;5091639;28;20607;-47
2022/11/11 10:56:18;;;;;;;3.83;1.83;;;;;;;;;;5091552;28;20671;-47
2022/11/11 10:58:48;;;;;;;3.07;1.87;;;;;;;;;;5091059;28;20229;-47
2022/11/11 11:01:17;;;;;;;3.60;1.80;;;;;;;;;;5091370;28;20225;-46
2022/11/11 11:03:48;;;;;;;2.93;1.80;;;;;;;;;;5091306;28;20206;-47
2022/11/11 11:06:18;;;;;;;3.47;2.00;;;;;;;;;;5091646;28;20206;-47
2022/11/11 11:08:45;;;;;;;6.10;1.90;;;;;;;;;;5091153;28;20232;-47
2022/11/11 11:11:16;;;;;;;2.60;1.80;;;;;;;;;;5091436;28;20214;-47
2022/11/11 11:13:44;;;;;;;5.93;1.80;;;;;;;;;;5091393;28;20571;-47
2022/11/11 11:16:13;;;;;;;2.43;1.60;;;;;;;;;;5091637;28;20206;-47
2022/11/11 11:18:39;;;;;;;3.33;1.73;;;;;;;;;;5091237;28;20794;-47
2022/11/11 11:21:07;;;;;;;4.37;1.97;;;;;;;;;;5091227;28;20195;-47
2022/11/11 11:23:37;;;;;;;3.37;1.70;;;;;;;;;;5091548;28;20220;-47
2022/11/11 11:26:04;;;;;;;3.50;1.60;;;;;;;;;;5091032;28;20200;-47
2022/11/11 11:28:30;;;;;;;2.47;1.50;;;;;;;;;;5091121;28;20245;-47
2022/11/11 11:30:58;;;;;;;3.80;1.93;;;;;;;;;;5091263;28;20676;-47
2022/11/11 11:33:24;;;;;;;3.60;1.87;;;;;;;;;;5091514;28;20201;-47
2022/11/11 11:35:50;;;;;;;3.27;1.67;;;;;;;;;;5090856;28;20273;-48
2022/11/11 11:38:18;;;;;;;4.97;2.07;;;;;;;;;;5091278;28;20633;-47
2022/11/11 11:40:45;;;;;;;3.17;2.00;;;;;;;;;;5091187;28;20244;-47
2022/11/11 11:43:23;;;;;;;2.63;1.47;;;;;;;;;;5091188;28;20191;-47
2022/11/11 11:45:53;;;;;;;4.57;1.90;;;;;;;;;;5091189;28;20653;-47
2022/11/11 11:48:25;;;;;;;5.40;1.63;;;;;;;;;;5091393;28;20226;-47
2022/11/11 11:50:52;;;;;;;3.50;1.60;;;;;;;;;;5091291;28;20242;-47
2022/11/11 11:53:25;;;;;;;3.73;1.50;;;;;;;;;;5091613;28;20193;-47
2022/11/11 11:55:54;;;;;;;4.57;1.87;;;;;;;;;;5087509;28;20210;-47
2022/11/11 11:58:30;;;;;;;6.40;2.10;;;;;;;;;;5091053;28;20193;-46
2022/11/11 12:01:00;;;;;;;3.20;1.80;;;;;;;;;;5090480;28;20208;-46
2022/11/11 12:03:37;;;;;;;3.07;1.73;;;;;;;;;;5091198;28;20231;-48
2022/11/11 12:06:05;;;;;;;4.13;1.80;;;;;;;;;;5091262;28;20204;-47
2022/11/11 12:08:42;;;;;;;3.33;1.80;;;;;;;;;;5091302;28;20443;-47
2022/11/11 12:11:11;;;;;;;3.63;1.60;;;;;;;;;;5091318;28;20197;-47
2022/11/11 12:13:43;;;;;;;4.27;1.77;;;;;;;;;;5091047;28;20204;-45
2022/11/11 12:16:15;;;;;;;5.40;1.90;;;;;;;;;;5090613;28;20254;-45
2022/11/11 12:18:51;;;;;;;5.60;1.60;;;;;;;;;;5091507;28;20193;-45
2022/11/11 12:21:21;;;;;;;3.43;1.57;;;;;;;;;;5094755;28;20205;-45
2022/11/11 12:23:58;;;;;;;3.53;1.77;;;;;;;;;;5094575;28;20197;-46
2022/11/11 12:26:28;;;;;;;3.13;1.77;;;;;;;;;;5094849;28;20198;-46
2022/11/11 12:29:03;;;;;;;3.77;1.77;;;;;;;;;;5094350;28;20321;-46
2022/11/11 12:31:39;;;;;;;3.63;1.87;;;;;;;;;;5094042;28;20202;-47
2022/11/11 12:34:16;;;;;;;4.70;1.90;;;;;;;;;;5094370;28;20191;-47
2022/11/11 12:36:44;;;;;;;4.97;2.13;;;;;;;;;;5094070;28;20198;-47
2022/11/11 12:39:17;;;;;;;4.07;2.07;;;;;;;;;;5094493;28;20191;-54
2022/11/11 12:41:52;;;;;;;7.27;2.17;;;;;;;;;;5093706;28;20200;-53
2022/11/11 12:44:19;;;;;;;7.20;1.63;;;;;;;;;;5094420;28;20216;-46
2022/11/11 12:46:56;;;;;;;2.17;1.47;;;;;;;;;;5094012;28;20214;-47
2022/11/11 12:49:40;;;;;;;3.23;1.73;;;;;;;;;;5093742;28;20590;-47
2022/11/11 12:52:13;;;;;;;6.97;2.17;;;;;;;;;;5093968;28;20236;-47
2022/11/11 12:54:45;;;;;;;4.23;1.57;;;;;;;;;;5093617;28;20659;-47
2022/11/11 12:57:16;;;;;;;6.77;1.80;;;;;;;;;;5093948;28;20217;-50
2022/11/11 12:59:52;;;;;;;2.97;1.77;;;;;;;;;;5093686;28;20191;-47
2022/11/11 13:02:26;;;;;;;2.60;1.57;;;;;;;;;;5093874;28;20196;-47
2022/11/11 13:04:57;;;;;;;3.57;1.80;;;;;;;;;;5093775;28;20195;-47
2022/11/11 13:07:31;;;;;;;3.83;1.60;;;;;;;;;;5093728;28;20206;-46
2022/11/11 13:10:02;;;;;;;2.23;1.60;;;;;;;;;;5093701;28;20196;-47
2022/11/11 13:12:31;;;;;;;4.43;1.63;;;;;;;;;;5093610;28;20206;-46
2022/11/11 13:15:02;;;;;;;4.23;1.70;;;;;;;;;;5093580;28;20210;-46
2022/11/11 13:17:30;;;;;;;3.70;1.80;;;;;;;;;;5093715;28;20223;-46
2022/11/11 13:19:58;;;;;;;3.40;2.07;;;;;;;;;;5093518;28;20199;-46
2022/11/11 13:22:25;;;;;;;3.87;2.00;;;;;;;;;;5093138;28;20207;-47
2022/11/11 13:24:52;;;;;;;3.10;1.70;;;;;;;;;;5093048;28;20295;-47
2022/11/11 13:27:26;;;;;;;4.17;1.80;;;;;;;;;;5093144;28;20203;-46
2022/11/11 13:30:12;;;;;;;2.47;1.47;;;;;;;;;;5092747;28;20195;-47
2022/11/11 13:32:40;;;;;;;4.23;1.70;;;;;;;;;;5088186;28;20298;-48
2022/11/11 13:35:14;;;;;;;2.37;1.60;;;;;;;;;;5093328;28;20213;-48
2022/11/11 13:37:43;;;;;;;4.10;1.70;;;;;;;;;;5092822;28;20225;-47
2022/11/11 13:40:22;;;;;;;3.27;1.40;;;;;;;;;;5092903;28;20210;-47
2022/11/11 13:42:51;;;;;;;1.53;1.40;;;;;;;;;;5093055;28;20202;-47
2022/11/11 13:45:22;;;;;;;3.90;1.53;;;;;;;;;;5093044;28;20207;-46
2022/11/11 13:47:48;;;;;;;4.20;1.40;;;;;;;;;;5092896;28;20412;-47
2022/11/11 13:50:26;;;;;;;3.27;1.70;;;;;;;;;;5092349;28;20199;-47
2022/11/11 13:52:54;;;;;;;2.70;1.97;;;;;;;;;;5092860;28;20206;-46
2022/11/11 13:55:25;;;;;;;5.57;1.70;;;;;;;;;;5092772;28;20216;-47
2022/11/11 13:57:53;;;;;;;2.90;1.43;;;;;;;;;;5092761;28;20191;-47
2022/11/11 14:00:29;;;;;;;1.93;1.33;;;;;;;;;;5092754;28;20230;-46
2022/11/11 14:03:13;;;;;;;3.83;1.80;;;;;;;;;;5091464;28;20197;-47
2022/11/11 14:05:39;;;;;;;4.20;1.60;;;;;;;;;;5092421;28;20207;-47
2022/11/11 14:08:06;;;;;;;6.63;1.87;;;;;;;;;;5092477;28;20253;-47
2022/11/11 14:10:56;;;;;;;2.77;1.40;;;;;;;;;;5092598;28;20260;-47
2022/11/11 14:13:37;;;;;;;4.07;1.40;;;;;;;;;;5077018;28;20199;-47
2022/11/11 14:16:03;;;;;;;3.70;1.73;;;;;;;;;;5092451;28;20191;-48
2022/11/11 14:18:35;;;;;;;4.90;1.40;;;;;;;;;;5091720;28;20197;-47
2022/11/11 14:21:01;;;;;;;4.77;1.73;;;;;;;;;;5091886;28;20612;-47
2022/11/11 14:23:32;;;;;;;3.50;1.70;;;;;;;;;;5092326;28;20199;-47
2022/11/11 14:26:17;;;;;;;2.13;1.70;;;;;;;;;;5092287;28;20219;-47
2022/11/11 14:28:51;;;;;;;3.30;1.73;;;;;;;;;;5092166;28;20214;-47
2022/11/11 14:31:30;;;;;;;3.20;1.50;;;;;;;;;;5092333;28;20202;-47
2022/11/11 14:34:00;;;;;;;3.67;1.60;;;;;;;;;;5091715;28;20194;-48
2022/11/11 14:36:32;;;;;;;2.90;1.70;;;;;;;;;;5091090;28;20691;-48
2022/11/11 14:39:03;;;;;;;3.93;1.60;;;;;;;;;;5091927;28;20202;-47
2022/11/11 14:41:43;;;;;;;2.17;1.70;;;;;;;;;;5091432;28;20673;-48
2022/11/11 14:44:30;;;;;;;2.53;1.70;;;;;;;;;;5091712;28;20214;-48
2022/11/11 14:49:59;;;;;;;3.30;1.30;;;;;;;;;;5088624;28;20556;-47
2022/11/11 14:52:29;;;;;;;3.40;1.40;;;;;;;;;;5084832;28;20218;-47
2022/11/11 14:54:58;;;;;;;4.17;1.53;;;;;;;;;;5088919;28;20578;-48
2022/11/11 14:57:25;;;;;;;5.73;1.90;;;;;;;;;;5088987;28;20225;-48
2022/11/11 14:59:52;;;;;;;2.77;1.70;;;;;;;;;;5088753;28;20194;-47
2022/11/11 15:02:23;;;;;;;4.27;1.70;;;;;;;;;;5088689;28;20279;-46
2022/11/11 15:04:49;;;;;;;3.17;1.80;;;;;;;;;;5087016;28;20252;-48
2022/11/11 15:07:21;;;;;;;2.83;1.77;;;;;;;;;;5088170;28;20566;-48
2022/11/11 15:09:56;;;;;;;3.17;1.60;;;;;;;;;;5088237;28;20739;-46
2022/11/11 15:12:26;;;;;;;2.93;1.50;;;;;;;;;;5088666;28;20205;-47
2022/11/11 15:14:55;;;;;;;3.10;1.67;;;;;;;;;;5088453;28;20195;-47
2022/11/11 15:17:25;;;;;;;3.60;1.70;;;;;;;;;;5088651;28;20199;-47
2022/11/11 15:19:58;;;;;;;2.73;1.60;;;;;;;;;;5088306;28;20338;-47
2022/11/11 15:22:32;;;;;;;2.43;1.77;;;;;;;;;;5088569;28;20273;-47
2022/11/11 15:25:06;;;;;;;1.63;1.30;;;;;;;;;;5088315;28;20282;-48
2022/11/11 15:27:36;;;;;;;4.10;1.67;;;;;;;;;;5088540;28;20226;-47
2022/11/11 15:30:06;;;;;;;1.93;1.57;;;;;;;;;;5087758;28;20234;-47
2022/11/11 15:32:39;;;;;;;3.43;1.80;;;;;;;;;;5087603;28;20191;-47
2022/11/11 15:35:19;;;;;;;3.90;1.47;;;;;;;;;;5088113;28;20193;-47
2022/11/11 15:37:50;;;;;;;2.80;1.53;;;;;;;;;;5087338;28;20199;-47
2022/11/11 15:40:18;;;;;;;3.30;1.73;;;;;;;;;;5088109;28;20209;-47
2022/11/11 15:42:48;;;;;;;2.73;1.60;;;;;;;;;;5088205;28;20206;-46
2022/11/11 15:45:20;;;;;;;4.47;1.60;;;;;;;;;;5086594;28;20658;-46
2022/11/11 15:47:47;;;;;;;4.43;1.80;;;;;;;;;;5087922;28;20191;-46
2022/11/11 15:50:17;;;;;;;2.40;1.60;;;;;;;;;;5088302;28;20203;-46
2022/11/11 15:52:43;;;;;;;3.47;1.27;;;;;;;;;;5088437;28;20195;-46
2022/11/11 15:55:19;;;;;;;3.37;1.50;;;;;;;;;;5088146;28;20298;-46
2022/11/11 15:57:45;;;;;;;1.77;1.30;;;;;;;;;;5088037;28;20206;-46
2022/11/11 16:00:25;;;;;;;3.57;1.50;;;;;;;;;;5080775;28;20245;-47
2022/11/11 16:02:52;;;;;;;3.20;1.63;;;;;;;;;;5074346;28;20191;-46
2022/11/11 16:05:19;;;;;;;3.30;1.40;;;;;;;;;;5074590;28;20214;-46
2022/11/11 16:07:46;;;;;;;2.33;1.60;;;;;;;;;;5074207;28;20206;-46